sensor_id;sensor_type;location;lat;lon;timestamp;P1;durP1;ratioP1;P2;durP2;ratioP2
58756;SDS011;44527;47.460;19.016;2023-09-12T10:36:57;14.43;;;4.90;;
58756;SDS011;44527;47.460;19.016;2023-09-12T10:40:02;21.73;;;4.53;;
58756;SDS011;44527;47.460;19.016;2023-09-12T10:43:11;16.50;;;4.47;;
58756;SDS011;44527;47.460;19.016;2023-09-12T12:24:07;8.52;;;3.55;;
58756;SDS011;44527;47.460;19.016;2023-09-12T12:27:11;16.67;;;4.15;;
58756;SDS011;44527;47.460;19.016;2023-09-12T12:30:13;12.82;;;3.60;;
58756;SDS011;44527;47.460;19.016;2023-09-12T12:33:17;13.68;;;3.47;;
58756;SDS011;44527;47.460;19.016;2023-09-12T12:36:42;18.75;;;3.85;;
58756;SDS011;44527;47.460;19.016;2023-09-12T12:39:57;12.70;;;3.83;;
58756;SDS011;44527;47.460;19.016;2023-09-12T12:43:00;20.85;;;3.80;;
58756;SDS011;44527;47.460;19.016;2023-09-12T12:46:03;12.23;;;3.12;;
58756;SDS011;44527;47.460;19.016;2023-09-12T12:49:14;13.65;;;4.10;;
58756;SDS011;44527;47.460;19.016;2023-09-12T12:52:27;19.98;;;3.78;;
58756;SDS011;44527;47.460;19.016;2023-09-12T12:55:29;11.85;;;3.50;;
58756;SDS011;44527;47.460;19.016;2023-09-12T12:58:32;15.07;;;3.50;;
58756;SDS011;44527;47.460;19.016;2023-09-12T13:01:37;19.95;;;3.65;;
58756;SDS011;44527;47.460;19.016;2023-09-12T13:04:45;16.08;;;4.10;;
58756;SDS011;44527;47.460;19.016;2023-09-12T13:07:49;20.98;;;4.10;;
58756;SDS011;44527;47.460;19.016;2023-09-12T13:10:53;17.98;;;4.87;;
58756;SDS011;44527;47.460;19.016;2023-09-12T13:13:57;13.27;;;4.00;;
58756;SDS011;44527;47.460;19.016;2023-09-12T13:17:20;21.98;;;4.40;;
58756;SDS011;44527;47.460;19.016;2023-09-12T13:20:25;14.02;;;3.50;;
58756;SDS011;44527;47.460;19.016;2023-09-12T13:23:29;20.37;;;3.70;;
58756;SDS011;44527;47.460;19.016;2023-09-12T13:26:32;12.65;;;3.40;;
58756;SDS011;44527;47.460;19.016;2023-09-12T13:29:36;19.02;;;3.72;;
58756;SDS011;44527;47.460;19.016;2023-09-12T13:32:38;15.43;;;4.03;;
58756;SDS011;44527;47.460;19.016;2023-09-12T13:35:43;18.27;;;3.97;;
58756;SDS011;44527;47.460;19.016;2023-09-12T13:38:46;20.25;;;3.90;;
58756;SDS011;44527;47.460;19.016;2023-09-12T13:41:51;18.50;;;3.85;;
58756;SDS011;44527;47.460;19.016;2023-09-12T13:44:53;19.83;;;4.85;;
58756;SDS011;44527;47.460;19.016;2023-09-12T13:47:57;13.35;;;3.65;;
58756;SDS011;44527;47.460;19.016;2023-09-12T13:51:01;12.32;;;3.65;;
58756;SDS011;44527;47.460;19.016;2023-09-12T13:54:05;13.43;;;4.05;;
58756;SDS011;44527;47.460;19.016;2023-09-12T13:57:09;17.73;;;4.03;;
58756;SDS011;44527;47.460;19.016;2023-09-12T14:00:12;14.20;;;3.55;;
58756;SDS011;44527;47.460;19.016;2023-09-12T14:03:16;18.25;;;3.92;;
58756;SDS011;44527;47.460;19.016;2023-09-12T14:06:19;11.18;;;3.58;;
58756;SDS011;44527;47.460;19.016;2023-09-12T14:09:22;16.60;;;4.18;;
58756;SDS011;44527;47.460;19.016;2023-09-12T14:12:27;13.00;;;3.33;;
58756;SDS011;44527;47.460;19.016;2023-09-12T14:15:31;14.55;;;4.00;;
58756;SDS011;44527;47.460;19.016;2023-09-12T14:18:33;15.25;;;3.95;;
58756;SDS011;44527;47.460;19.016;2023-09-12T14:21:37;17.02;;;3.50;;
58756;SDS011;44527;47.460;19.016;2023-09-12T14:24:39;19.85;;;3.85;;
58756;SDS011;44527;47.460;19.016;2023-09-12T14:27:42;28.30;;;3.62;;
58756;SDS011;44527;47.460;19.016;2023-09-12T14:30:47;13.77;;;3.58;;
58756;SDS011;44527;47.460;19.016;2023-09-12T14:33:52;16.50;;;3.80;;
58756;SDS011;44527;47.460;19.016;2023-09-12T14:36:55;24.00;;;3.67;;
58756;SDS011;44527;47.460;19.016;2023-09-12T14:40:02;17.40;;;4.72;;
58756;SDS011;44527;47.460;19.016;2023-09-12T14:43:06;19.90;;;4.20;;
58756;SDS011;44527;47.460;19.016;2023-09-12T14:46:09;19.42;;;4.15;;
58756;SDS011;44527;47.460;19.016;2023-09-12T14:49:12;20.33;;;4.62;;
58756;SDS011;44527;47.460;19.016;2023-09-12T14:52:17;18.73;;;3.95;;
58756;SDS011;44527;47.460;19.016;2023-09-12T14:55:27;19.33;;;3.78;;
58756;SDS011;44527;47.460;19.016;2023-09-12T14:58:31;20.40;;;3.95;;
58756;SDS011;44527;47.460;19.016;2023-09-12T15:01:34;15.93;;;3.70;;
58756;SDS011;44527;47.460;19.016;2023-09-12T15:04:37;17.95;;;3.95;;
58756;SDS011;44527;47.460;19.016;2023-09-12T15:07:40;19.23;;;3.67;;
58756;SDS011;44527;47.460;19.016;2023-09-12T15:10:43;10.00;;;3.53;;
58756;SDS011;44527;47.460;19.016;2023-09-12T15:13:45;15.70;;;3.90;;
58756;SDS011;44527;47.460;19.016;2023-09-12T15:16:49;16.73;;;3.90;;
58756;SDS011;44527;47.460;19.016;2023-09-12T15:19:52;19.15;;;3.92;;
58756;SDS011;44527;47.460;19.016;2023-09-12T15:22:56;16.73;;;4.85;;
58756;SDS011;44527;47.460;19.016;2023-09-12T15:25:58;23.30;;;4.35;;
58756;SDS011;44527;47.460;19.016;2023-09-12T15:29:02;18.80;;;3.87;;
58756;SDS011;44527;47.460;19.016;2023-09-12T15:32:06;19.98;;;3.97;;
58756;SDS011;44527;47.460;19.016;2023-09-12T15:35:09;24.45;;;4.53;;
58756;SDS011;44527;47.460;19.016;2023-09-12T15:38:13;19.60;;;4.30;;
58756;SDS011;44527;47.460;19.016;2023-09-12T15:41:16;17.55;;;3.70;;
58756;SDS011;44527;47.460;19.016;2023-09-12T15:44:18;19.92;;;4.53;;
58756;SDS011;44527;47.460;19.016;2023-09-12T15:47:21;16.60;;;3.72;;
58756;SDS011;44527;47.460;19.016;2023-09-12T15:50:24;13.68;;;3.95;;
58756;SDS011;44527;47.460;19.016;2023-09-12T15:53:28;20.90;;;4.15;;
58756;SDS011;44527;47.460;19.016;2023-09-12T15:56:30;18.15;;;4.20;;
58756;SDS011;44527;47.460;19.016;2023-09-12T15:59:33;17.02;;;4.43;;
58756;SDS011;44527;47.460;19.016;2023-09-12T16:02:37;19.30;;;5.15;;
58756;SDS011;44527;47.460;19.016;2023-09-12T16:05:41;17.62;;;4.62;;
58756;SDS011;44527;47.460;19.016;2023-09-12T16:08:44;17.58;;;4.10;;
58756;SDS011;44527;47.460;19.016;2023-09-12T16:11:47;16.95;;;4.45;;
58756;SDS011;44527;47.460;19.016;2023-09-12T16:14:53;14.70;;;4.18;;
58756;SDS011;44527;47.460;19.016;2023-09-12T16:17:58;20.33;;;4.43;;
58756;SDS011;44527;47.460;19.016;2023-09-12T16:21:00;18.98;;;4.80;;
58756;SDS011;44527;47.460;19.016;2023-09-12T16:24:03;22.48;;;4.55;;
58756;SDS011;44527;47.460;19.016;2023-09-12T16:27:06;17.70;;;4.12;;
58756;SDS011;44527;47.460;19.016;2023-09-12T16:30:09;22.80;;;4.87;;
58756;SDS011;44527;47.460;19.016;2023-09-12T16:33:12;17.75;;;4.90;;
58756;SDS011;44527;47.460;19.016;2023-09-12T16:36:16;15.35;;;4.53;;
58756;SDS011;44527;47.460;19.016;2023-09-12T16:39:18;17.48;;;4.47;;
58756;SDS011;44527;47.460;19.016;2023-09-12T16:42:21;19.87;;;4.78;;
58756;SDS011;44527;47.460;19.016;2023-09-12T16:45:26;21.92;;;4.57;;
58756;SDS011;44527;47.460;19.016;2023-09-12T16:48:29;17.52;;;4.65;;
58756;SDS011;44527;47.460;19.016;2023-09-12T16:51:32;21.73;;;4.90;;
58756;SDS011;44527;47.460;19.016;2023-09-12T16:54:36;25.80;;;5.12;;
58756;SDS011;44527;47.460;19.016;2023-09-12T16:57:40;24.37;;;5.32;;
58756;SDS011;44527;47.460;19.016;2023-09-12T17:00:43;25.83;;;4.65;;
58756;SDS011;44527;47.460;19.016;2023-09-12T17:03:45;21.60;;;5.95;;
58756;SDS011;44527;47.460;19.016;2023-09-12T17:06:49;23.23;;;5.80;;
58756;SDS011;44527;47.460;19.016;2023-09-12T17:09:51;20.05;;;5.18;;
58756;SDS011;44527;47.460;19.016;2023-09-12T17:12:54;15.45;;;5.68;;
58756;SDS011;44527;47.460;19.016;2023-09-12T17:15:57;16.52;;;5.00;;
58756;SDS011;44527;47.460;19.016;2023-09-12T17:19:00;18.02;;;4.75;;
58756;SDS011;44527;47.460;19.016;2023-09-12T17:22:03;27.17;;;6.18;;
58756;SDS011;44527;47.460;19.016;2023-09-12T17:25:06;21.83;;;5.65;;
58756;SDS011;44527;47.460;19.016;2023-09-12T17:28:10;21.33;;;5.28;;
58756;SDS011;44527;47.460;19.016;2023-09-12T17:31:13;15.82;;;5.22;;
58756;SDS011;44527;47.460;19.016;2023-09-12T17:34:17;28.98;;;5.85;;
58756;SDS011;44527;47.460;19.016;2023-09-12T17:37:20;28.50;;;5.87;;
58756;SDS011;44527;47.460;19.016;2023-09-12T17:40:25;19.87;;;5.80;;
58756;SDS011;44527;47.460;19.016;2023-09-12T17:43:28;22.30;;;6.25;;
58756;SDS011;44527;47.460;19.016;2023-09-12T17:46:32;26.10;;;5.70;;
58756;SDS011;44527;47.460;19.016;2023-09-12T17:49:35;27.92;;;5.82;;
58756;SDS011;44527;47.460;19.016;2023-09-12T17:52:37;30.05;;;6.12;;
58756;SDS011;44527;47.460;19.016;2023-09-12T17:55:43;27.62;;;6.35;;
58756;SDS011;44527;47.460;19.016;2023-09-12T18:01:51;20.77;;;5.82;;
58756;SDS011;44527;47.460;19.016;2023-09-12T18:04:55;25.37;;;6.57;;
58756;SDS011;44527;47.460;19.016;2023-09-12T18:07:57;20.02;;;6.90;;
58756;SDS011;44527;47.460;19.016;2023-09-12T18:11:01;30.70;;;7.15;;
58756;SDS011;44527;47.460;19.016;2023-09-12T18:14:05;16.58;;;5.93;;
58756;SDS011;44527;47.460;19.016;2023-09-12T18:17:08;22.48;;;6.35;;
58756;SDS011;44527;47.460;19.016;2023-09-12T18:20:13;27.33;;;5.62;;
58756;SDS011;44527;47.460;19.016;2023-09-12T18:23:17;21.25;;;6.85;;
58756;SDS011;44527;47.460;19.016;2023-09-12T18:26:19;21.83;;;6.25;;
58756;SDS011;44527;47.460;19.016;2023-09-12T18:29:22;32.38;;;6.90;;
58756;SDS011;44527;47.460;19.016;2023-09-12T18:32:25;22.40;;;6.80;;
58756;SDS011;44527;47.460;19.016;2023-09-12T18:35:28;25.73;;;6.90;;
58756;SDS011;44527;47.460;19.016;2023-09-12T18:38:30;28.08;;;6.05;;
58756;SDS011;44527;47.460;19.016;2023-09-12T18:41:34;28.58;;;6.90;;
58756;SDS011;44527;47.460;19.016;2023-09-12T18:44:36;25.30;;;6.97;;
58756;SDS011;44527;47.460;19.016;2023-09-12T18:47:39;25.80;;;6.43;;
58756;SDS011;44527;47.460;19.016;2023-09-12T18:50:42;32.63;;;6.40;;
58756;SDS011;44527;47.460;19.016;2023-09-12T18:53:46;35.50;;;6.70;;
58756;SDS011;44527;47.460;19.016;2023-09-12T18:56:48;26.95;;;6.03;;
58756;SDS011;44527;47.460;19.016;2023-09-12T18:59:53;25.62;;;6.68;;
58756;SDS011;44527;47.460;19.016;2023-09-12T19:02:56;30.62;;;6.97;;
58756;SDS011;44527;47.460;19.016;2023-09-12T19:05:59;22.62;;;5.80;;
58756;SDS011;44527;47.460;19.016;2023-09-12T19:09:04;30.12;;;6.18;;
58756;SDS011;44527;47.460;19.016;2023-09-12T19:12:07;18.37;;;5.95;;
58756;SDS011;44527;47.460;19.016;2023-09-12T19:15:10;29.80;;;6.20;;
58756;SDS011;44527;47.460;19.016;2023-09-12T19:18:14;21.55;;;6.00;;
58756;SDS011;44527;47.460;19.016;2023-09-12T19:21:16;20.25;;;5.18;;
58756;SDS011;44527;47.460;19.016;2023-09-12T19:24:19;25.02;;;6.50;;
58756;SDS011;44527;47.460;19.016;2023-09-12T19:27:22;22.85;;;6.28;;
58756;SDS011;44527;47.460;19.016;2023-09-12T19:30:25;20.77;;;5.97;;
58756;SDS011;44527;47.460;19.016;2023-09-12T19:33:27;23.48;;;6.57;;
58756;SDS011;44527;47.460;19.016;2023-09-12T19:36:31;24.45;;;6.12;;
58756;SDS011;44527;47.460;19.016;2023-09-12T19:39:33;15.68;;;5.50;;
58756;SDS011;44527;47.460;19.016;2023-09-12T19:42:36;25.85;;;6.07;;
58756;SDS011;44527;47.460;19.016;2023-09-12T19:45:39;32.20;;;7.07;;
58756;SDS011;44527;47.460;19.016;2023-09-12T19:48:42;19.00;;;6.60;;
58756;SDS011;44527;47.460;19.016;2023-09-12T19:51:45;23.77;;;5.95;;
58756;SDS011;44527;47.460;19.016;2023-09-12T19:54:48;28.00;;;5.85;;
58756;SDS011;44527;47.460;19.016;2023-09-12T19:57:50;25.83;;;6.43;;
58756;SDS011;44527;47.460;19.016;2023-09-12T20:00:57;21.52;;;6.03;;
58756;SDS011;44527;47.460;19.016;2023-09-12T20:04:01;26.35;;;6.00;;
58756;SDS011;44527;47.460;19.016;2023-09-12T20:07:04;12.15;;;5.50;;
58756;SDS011;44527;47.460;19.016;2023-09-12T20:10:08;28.35;;;6.45;;
58756;SDS011;44527;47.460;19.016;2023-09-12T20:13:11;20.98;;;6.62;;
58756;SDS011;44527;47.460;19.016;2023-09-12T20:16:14;27.80;;;5.32;;
58756;SDS011;44527;47.460;19.016;2023-09-12T20:19:18;25.42;;;5.53;;
58756;SDS011;44527;47.460;19.016;2023-09-12T20:22:20;24.50;;;5.75;;
58756;SDS011;44527;47.460;19.016;2023-09-12T20:25:23;23.33;;;5.37;;
58756;SDS011;44527;47.460;19.016;2023-09-12T20:28:26;23.95;;;5.93;;
58756;SDS011;44527;47.460;19.016;2023-09-12T20:31:29;21.67;;;5.90;;
58756;SDS011;44527;47.460;19.016;2023-09-12T20:34:32;21.37;;;6.50;;
58756;SDS011;44527;47.460;19.016;2023-09-12T20:37:36;22.15;;;7.03;;
58756;SDS011;44527;47.460;19.016;2023-09-12T20:40:40;20.25;;;5.40;;
58756;SDS011;44527;47.460;19.016;2023-09-12T20:43:43;20.42;;;5.57;;
58756;SDS011;44527;47.460;19.016;2023-09-12T20:46:47;17.02;;;5.68;;
58756;SDS011;44527;47.460;19.016;2023-09-12T20:49:50;24.00;;;6.53;;
58756;SDS011;44527;47.460;19.016;2023-09-12T20:53:00;27.50;;;6.12;;
58756;SDS011;44527;47.460;19.016;2023-09-12T20:56:06;16.05;;;5.82;;
58756;SDS011;44527;47.460;19.016;2023-09-12T20:59:11;25.60;;;7.20;;
58756;SDS011;44527;47.460;19.016;2023-09-12T21:02:13;21.45;;;6.65;;
58756;SDS011;44527;47.460;19.016;2023-09-12T21:05:17;27.80;;;6.68;;
58756;SDS011;44527;47.460;19.016;2023-09-12T21:08:20;21.70;;;6.57;;
58756;SDS011;44527;47.460;19.016;2023-09-12T21:11:22;20.55;;;6.43;;
58756;SDS011;44527;47.460;19.016;2023-09-12T21:14:25;25.35;;;6.57;;
58756;SDS011;44527;47.460;19.016;2023-09-12T21:17:28;29.40;;;7.43;;
58756;SDS011;44527;47.460;19.016;2023-09-12T21:20:31;24.55;;;6.53;;
58756;SDS011;44527;47.460;19.016;2023-09-12T21:23:33;24.20;;;6.55;;
58756;SDS011;44527;47.460;19.016;2023-09-12T21:26:36;21.27;;;7.00;;
58756;SDS011;44527;47.460;19.016;2023-09-12T21:29:39;25.40;;;6.03;;
58756;SDS011;44527;47.460;19.016;2023-09-12T21:32:42;20.60;;;6.20;;
58756;SDS011;44527;47.460;19.016;2023-09-12T21:35:46;26.12;;;6.47;;
58756;SDS011;44527;47.460;19.016;2023-09-12T21:38:48;28.05;;;6.18;;
58756;SDS011;44527;47.460;19.016;2023-09-12T21:41:51;25.95;;;7.85;;
58756;SDS011;44527;47.460;19.016;2023-09-12T21:44:57;17.75;;;6.53;;
58756;SDS011;44527;47.460;19.016;2023-09-12T21:48:01;26.02;;;6.53;;
58756;SDS011;44527;47.460;19.016;2023-09-12T21:51:07;18.55;;;5.93;;
58756;SDS011;44527;47.460;19.016;2023-09-12T21:54:14;20.08;;;6.00;;
58756;SDS011;44527;47.460;19.016;2023-09-12T21:57:16;25.58;;;6.07;;
58756;SDS011;44527;47.460;19.016;2023-09-12T22:00:19;19.30;;;6.78;;
58756;SDS011;44527;47.460;19.016;2023-09-12T22:03:26;20.67;;;6.28;;
58756;SDS011;44527;47.460;19.016;2023-09-12T22:06:28;16.40;;;6.28;;
58756;SDS011;44527;47.460;19.016;2023-09-12T22:09:31;21.12;;;5.85;;
58756;SDS011;44527;47.460;19.016;2023-09-12T22:12:34;18.75;;;5.57;;
58756;SDS011;44527;47.460;19.016;2023-09-12T22:15:37;20.25;;;5.75;;
58756;SDS011;44527;47.460;19.016;2023-09-12T22:18:43;13.27;;;5.95;;
58756;SDS011;44527;47.460;19.016;2023-09-12T22:21:46;20.05;;;6.18;;
58756;SDS011;44527;47.460;19.016;2023-09-12T22:24:52;30.30;;;7.78;;
58756;SDS011;44527;47.460;19.016;2023-09-12T22:27:58;23.73;;;6.62;;
58756;SDS011;44527;47.460;19.016;2023-09-12T22:31:09;22.58;;;6.53;;
58756;SDS011;44527;47.460;19.016;2023-09-12T22:34:13;20.85;;;6.68;;
58756;SDS011;44527;47.460;19.016;2023-09-12T22:37:15;28.40;;;7.90;;
58756;SDS011;44527;47.460;19.016;2023-09-12T22:40:18;16.65;;;5.70;;
58756;SDS011;44527;47.460;19.016;2023-09-12T22:43:21;14.30;;;5.37;;
58756;SDS011;44527;47.460;19.016;2023-09-12T22:46:24;15.10;;;5.78;;
58756;SDS011;44527;47.460;19.016;2023-09-12T22:49:27;19.02;;;6.53;;
58756;SDS011;44527;47.460;19.016;2023-09-12T22:52:30;16.00;;;5.82;;
58756;SDS011;44527;47.460;19.016;2023-09-12T22:55:36;20.37;;;6.10;;
58756;SDS011;44527;47.460;19.016;2023-09-12T22:58:43;18.48;;;5.57;;
58756;SDS011;44527;47.460;19.016;2023-09-12T23:01:46;17.30;;;6.03;;
58756;SDS011;44527;47.460;19.016;2023-09-12T23:04:49;25.42;;;6.10;;
58756;SDS011;44527;47.460;19.016;2023-09-12T23:07:54;16.62;;;5.82;;
58756;SDS011;44527;47.460;19.016;2023-09-12T23:10:57;24.73;;;8.25;;
58756;SDS011;44527;47.460;19.016;2023-09-12T23:13:59;13.30;;;5.93;;
58756;SDS011;44527;47.460;19.016;2023-09-12T23:17:03;16.90;;;5.90;;
58756;SDS011;44527;47.460;19.016;2023-09-12T23:20:06;23.67;;;6.82;;
58756;SDS011;44527;47.460;19.016;2023-09-12T23:26:17;16.98;;;5.90;;
58756;SDS011;44527;47.460;19.016;2023-09-12T23:29:21;13.88;;;5.65;;
58756;SDS011;44527;47.460;19.016;2023-09-12T23:32:23;20.10;;;6.12;;
58756;SDS011;44527;47.460;19.016;2023-09-12T23:35:27;26.37;;;6.18;;
58756;SDS011;44527;47.460;19.016;2023-09-12T23:38:29;20.42;;;6.70;;
58756;SDS011;44527;47.460;19.016;2023-09-12T23:41:32;20.35;;;5.87;;
58756;SDS011;44527;47.460;19.016;2023-09-12T23:44:35;17.42;;;5.65;;
58756;SDS011;44527;47.460;19.016;2023-09-12T23:47:38;22.62;;;5.30;;
58756;SDS011;44527;47.460;19.016;2023-09-12T23:50:41;17.62;;;5.68;;
58756;SDS011;44527;47.460;19.016;2023-09-12T23:53:44;20.12;;;5.95;;
58756;SDS011;44527;47.460;19.016;2023-09-12T23:56:47;20.23;;;5.72;;
58756;SDS011;44527;47.460;19.016;2023-09-12T23:59:50;19.52;;;6.28;;
